Flugplatz Marl-Loemühle

Für EDLM sind keine METAR/TAF Berichte vorhanden.
Es werden die Flugwettermeldungen vom Flugplatz Dortmund in 34 km Entfernung angezeigt.

Bericht für EDLW

vom 15.07. um 17:50 UTC

Wind 5 kt aus 250°

Sichtweite 10 km oder mehr

gute Sicht, keine Wolken < 5000 ft, keine CB, keine Wettererscheinungen (CAVOK)

Temperatur 18.0°C

Taupunkt 8.0°C

Luftfeuchtigkeit 52%

Luftdruck 1014 hPa

EDLW 151750Z 25005KT 220V300 CAVOK 18/08 Q1014

Prognose für EDLW

vom 15.07. um 17:00 UTC

Zwischen 18:00 UTC und 19:00 UTC

Wind 5 kt aus 300°

Sichtweite 10 km oder mehr

aufgebrochene Bewölkung in 3000 ft


Zwischen 19:00 und 22:00 UTC übergehend zu

variable Windrichtung mit 3 kt

Sichtweite 10 km oder mehr

aufgebrochene Bewölkung in 3000 ft


Am 16.07. zwischen 03:00 UTC und 14:00 UTC zeitweise mit einer Wahrscheinlichkeit von 30%

aufgebrochene Bewölkung in 800 ft


Am 16.07. zwischen 03:00 UTC und 18:00 UTC zeitweise

Sichtweite 3000 m

schwacher Regen

schwacher Sprühregen

feuchter Dunst

aufgebrochene Bewölkung in 1200 ft


Am 16.07. zwischen 09:00 UTC und 15:00 UTC zeitweise

Wind 5 kt aus 260°

TAF EDLW 151700Z 1518/1618 30005KT 9999 BKN030 BECMG 1519/1522 VRB03KT TEMPO 1603/1618 3000 -RADZ BR BKN012 PROB30 TEMPO 1603/1614 BKN008 TEMPO 1609/1615 26005KT
Impressum